Time;durP1;ratioP1;P1;durP2;ratioP2;P2;SDS_P1;SDS_P2;PMS_P1;PMS_P2;Temp;Humidity;BMP_temperature;BMP_pressure;BME280_temperature;BME280_humidity;BME280_pressure;Samples;Min_cycle;Max_cycle;Signal;HPM_P1;HPM_P2
2021/11/10 00:01:29;;;;;;;12.67;9.50;;;6.30;99.90;;;;;;4950262;29;20573;-62
2021/11/10 00:03:56;;;;;;;12.50;10.30;;;6.30;99.90;;;;;;4951068;29;20272;-60
2021/11/10 00:06:21;;;;;;;17.88;10.40;;;6.10;99.90;;;;;;4950215;29;20197;-61
2021/11/10 00:08:47;;;;;;;13.07;10.03;;;6.10;99.90;;;;;;4950616;29;20194;-60
2021/11/10 00:11:13;;;;;;;13.07;10.30;;;6.00;99.90;;;;;;4950497;29;21011;-61
2021/11/10 00:13:38;;;;;;;12.10;9.93;;;5.90;99.90;;;;;;4950793;29;20186;-61
2021/11/10 00:16:04;;;;;;;13.90;10.80;;;5.90;99.90;;;;;;4950602;29;20220;-61
2021/11/10 00:18:29;;;;;;;14.33;10.53;;;5.80;99.90;;;;;;4933398;29;20190;-60
2021/11/10 00:20:55;;;;;;;12.47;9.87;;;5.80;99.90;;;;;;4950492;29;20209;-60
2021/11/10 00:23:21;;;;;;;13.00;10.23;;;5.70;99.90;;;;;;4950824;29;20185;-61
2021/11/10 00:25:47;;;;;;;16.40;10.90;;;5.70;99.90;;;;;;4950237;29;20236;-61
2021/11/10 00:28:13;;;;;;;15.23;10.47;;;5.70;99.90;;;;;;4950703;29;20505;-61
2021/11/10 00:30:38;;;;;;;13.43;10.90;;;5.70;99.90;;;;;;4949502;29;20461;-61
2021/11/10 00:33:04;;;;;;;13.20;9.57;;;5.60;99.90;;;;;;4932043;29;20485;-60
2021/11/10 00:35:30;;;;;;;11.80;9.70;;;5.60;99.90;;;;;;4941909;29;20201;-61
2021/11/10 00:37:55;;;;;;;12.30;9.60;;;5.70;99.90;;;;;;4947355;29;20433;-61
2021/11/10 00:40:21;;;;;;;14.87;10.43;;;5.70;99.90;;;;;;4950624;29;20943;-62
2021/11/10 00:42:47;;;;;;;12.80;10.15;;;5.70;99.90;;;;;;4949418;29;20272;-61
2021/11/10 00:45:13;;;;;;;12.20;10.60;;;5.70;99.90;;;;;;4951410;29;20216;-61
2021/11/10 00:47:38;;;;;;;11.60;9.70;;;5.70;99.90;;;;;;4950437;29;20200;-61
2021/11/10 00:50:06;;;;;;;13.10;9.43;;;5.70;99.90;;;;;;4950231;29;20264;-61
2021/11/10 00:52:32;;;;;;;15.88;10.38;;;5.80;99.90;;;;;;4950538;29;20220;-61
2021/11/10 00:54:57;;;;;;;12.97;9.47;;;5.80;99.90;;;;;;4949282;29;20304;-61
2021/11/10 00:57:23;;;;;;;10.67;9.33;;;5.80;99.90;;;;;;4950630;29;20220;-61
2021/11/10 00:59:49;;;;;;;14.10;10.60;;;5.90;99.90;;;;;;4942093;29;20195;-60
2021/11/10 01:02:14;;;;;;;16.17;10.90;;;5.90;99.90;;;;;;4950448;29;20189;-60
2021/11/10 01:04:40;;;;;;;11.83;9.43;;;6.00;99.90;;;;;;4950766;29;20220;-61
2021/11/10 01:07:06;;;;;;;13.35;9.30;;;6.10;99.90;;;;;;4950115;29;20228;-60
2021/11/10 01:09:39;;;;;;;15.50;9.67;;;6.10;99.90;;;;;;4951315;28;20268;-60
2021/11/10 01:12:09;;;;;;;12.98;9.43;;;6.10;99.90;;;;;;4954150;29;20178;-61
2021/11/10 01:14:35;;;;;;;12.52;9.15;;;6.20;99.90;;;;;;4953407;29;20256;-61
2021/11/10 01:17:01;;;;;;;14.02;10.45;;;6.20;99.90;;;;;;4936629;29;20189;-61
2021/11/10 01:19:26;;;;;;;13.03;9.77;;;6.20;99.90;;;;;;4947182;29;20192;-61
2021/11/10 01:21:52;;;;;;;11.70;8.97;;;6.30;99.90;;;;;;4954120;29;20248;-61
2021/11/10 01:24:18;;;;;;;14.03;9.97;;;6.30;99.90;;;;;;4954311;29;20189;-61
2021/11/10 01:26:44;;;;;;;12.05;9.98;;;6.40;99.90;;;;;;4953427;29;20185;-61
2021/11/10 01:29:10;;;;;;;13.33;9.90;;;6.40;99.90;;;;;;4953115;29;20184;-60
2021/11/10 01:31:36;;;;;;;13.90;9.40;;;6.40;99.90;;;;;;4952580;29;20209;-54
2021/11/10 01:34:07;;;;;;;11.80;8.60;;;6.50;99.90;;;;;;4953600;29;21011;-60
2021/11/10 01:36:33;;;;;;;11.73;9.60;;;6.50;99.90;;;;;;4947300;29;20885;-61
2021/11/10 01:38:58;;;;;;;13.02;9.90;;;6.50;99.90;;;;;;4953664;29;20633;-61
2021/11/10 01:41:24;;;;;;;14.03;10.30;;;6.60;99.90;;;;;;4953683;29;20209;-58
2021/11/10 01:43:50;;;;;;;12.90;10.33;;;6.60;99.90;;;;;;4953368;29;20205;-61
2021/11/10 01:46:15;;;;;;;14.80;9.80;;;6.60;99.90;;;;;;4953105;29;20268;-60
2021/11/10 01:48:41;;;;;;;13.90;10.20;;;6.60;99.90;;;;;;4953457;29;20564;-60
2021/11/10 01:51:07;;;;;;;11.83;8.97;;;6.60;99.90;;;;;;4953129;29;20252;-60
2021/11/10 01:53:34;;;;;;;12.63;9.67;;;6.60;99.90;;;;;;4953211;29;20436;-60
2021/11/10 01:56:00;;;;;;;14.40;10.13;;;6.60;99.90;;;;;;4951693;29;20480;-61
2021/11/10 01:58:26;;;;;;;12.57;9.70;;;6.60;99.90;;;;;;4935390;29;20539;-61
2021/11/10 02:00:52;;;;;;;13.23;9.50;;;6.60;99.90;;;;;;4952561;29;20974;-61
2021/11/10 02:03:18;;;;;;;15.90;10.27;;;6.50;99.90;;;;;;4952951;29;20931;-61
2021/11/10 02:05:44;;;;;;;14.93;9.87;;;6.50;99.90;;;;;;4953148;29;20641;-61
2021/11/10 02:08:09;;;;;;;12.60;9.77;;;6.50;99.90;;;;;;4953198;29;20197;-61
2021/11/10 02:10:35;;;;;;;10.97;9.17;;;6.50;99.90;;;;;;4952767;28;20177;-60
2021/11/10 02:13:01;;;;;;;13.83;9.40;;;6.40;99.90;;;;;;4953043;29;20643;-60
2021/11/10 02:15:26;;;;;;;13.03;10.00;;;6.40;99.90;;;;;;4953210;29;20469;-61
2021/11/10 02:17:54;;;;;;;13.27;10.37;;;6.40;99.90;;;;;;4951356;29;20186;-61
2021/11/10 02:20:20;;;;;;;13.48;10.32;;;6.40;99.90;;;;;;4952027;28;20189;-60
2021/11/10 02:22:50;;;;;;;13.70;9.87;;;6.40;99.90;;;;;;4952536;29;20209;-61
2021/11/10 02:25:16;;;;;;;12.13;9.70;;;6.30;99.90;;;;;;4953172;29;20429;-61
2021/11/10 02:27:42;;;;;;;12.43;9.20;;;6.30;99.90;;;;;;4950728;29;20182;-61
2021/11/10 02:30:13;;;;;;;12.43;9.75;;;6.30;99.90;;;;;;4953419;29;20452;-60
2021/11/10 02:32:44;;;;;;;15.05;9.60;;;6.30;99.90;;;;;;4951925;29;20257;-61
2021/11/10 02:35:19;;;;;;;12.55;9.95;;;6.20;99.90;;;;;;4951878;29;20252;-58
2021/11/10 02:37:52;;;;;;;14.07;10.65;;;6.20;99.90;;;;;;4952734;29;20174;-61
2021/11/10 02:40:19;;;;;;;14.05;9.75;;;6.10;99.90;;;;;;4952596;29;20209;-62
2021/11/10 02:42:44;;;;;;;19.70;10.68;;;6.10;99.90;;;;;;4952436;29;20191;-60
2021/11/10 02:45:10;;;;;;;12.30;10.00;;;6.00;99.90;;;;;;4952749;29;20181;-62
2021/11/10 02:47:36;;;;;;;13.67;10.90;;;6.00;99.90;;;;;;4949390;29;20236;-60
2021/11/10 02:50:03;;;;;;;13.57;10.10;;;5.90;99.90;;;;;;4952862;29;20193;-60
2021/11/10 02:52:29;;;;;;;12.15;9.82;;;5.90;99.90;;;;;;4953385;29;20190;-53
2021/11/10 02:54:54;;;;;;;14.30;10.20;;;5.90;99.90;;;;;;4932780;29;20220;-61
2021/11/10 02:57:21;;;;;;;17.30;10.57;;;5.90;99.90;;;;;;4953607;29;20213;-59
2021/11/10 02:59:48;;;;;;;13.02;9.88;;;5.90;99.90;;;;;;4953676;29;20293;-62
2021/11/10 03:02:14;;;;;;;13.52;10.32;;;5.80;99.90;;;;;;4953551;29;20545;-60
2021/11/10 03:04:45;;;;;;;13.52;10.70;;;5.80;99.90;;;;;;4952893;29;20181;-61
2021/11/10 03:07:12;;;;;;;14.05;10.85;;;5.90;99.90;;;;;;4954102;29;20196;-60
2021/11/10 03:09:38;;;;;;;17.23;10.65;;;5.90;99.90;;;;;;4953731;29;20281;-61
2021/11/10 03:12:06;;;;;;;15.68;10.15;;;6.00;99.90;;;;;;4953614;29;20189;-60
2021/11/10 03:14:35;;;;;;;14.65;10.32;;;5.90;99.90;;;;;;4934969;29;20213;-60
2021/11/10 03:17:11;;;;;;;14.10;10.40;;;5.90;99.90;;;;;;4953574;29;20704;-61
2021/11/10 03:19:37;;;;;;;15.68;10.82;;;6.00;99.90;;;;;;4950731;29;20190;-61
2021/11/10 03:22:05;;;;;;;15.20;11.00;;;5.90;99.90;;;;;;4952226;29;20277;-58
2021/11/10 03:24:32;;;;;;;14.00;10.32;;;5.90;99.90;;;;;;4953378;29;20216;-60
2021/11/10 03:26:58;;;;;;;16.27;10.35;;;6.00;99.90;;;;;;4953859;29;20221;-60
2021/11/10 03:29:24;;;;;;;14.65;10.15;;;5.90;99.90;;;;;;4947988;28;20521;-60
2021/11/10 03:31:50;;;;;;;13.50;9.97;;;5.90;99.90;;;;;;4952968;28;20196;-61
2021/11/10 03:34:16;;;;;;;15.30;10.93;;;5.90;99.90;;;;;;4953345;29;20233;-61
2021/11/10 03:36:42;;;;;;;13.90;10.43;;;5.90;99.90;;;;;;4953423;29;20182;-61
2021/11/10 03:39:11;;;;;;;16.60;11.23;;;5.80;99.90;;;;;;4952254;29;20477;-60
2021/11/10 03:41:38;;;;;;;14.88;11.13;;;5.80;99.90;;;;;;4944784;29;20464;-60
2021/11/10 03:44:04;;;;;;;14.77;11.00;;;5.80;99.90;;;;;;4953237;29;20181;-60
2021/11/10 03:46:30;;;;;;;17.30;11.82;;;5.80;99.90;;;;;;4951347;29;20185;-61
2021/11/10 03:48:56;;;;;;;16.95;11.70;;;5.80;99.90;;;;;;4952882;29;20189;-60
2021/11/10 03:51:21;;;;;;;14.50;10.90;;;5.70;99.90;;;;;;4943327;29;20194;-60
2021/11/10 03:53:48;;;;;;;14.70;11.20;;;5.70;99.90;;;;;;4932457;29;20245;-60
2021/11/10 03:56:14;;;;;;;16.80;11.18;;;5.80;99.90;;;;;;4932185;29;20210;-60
2021/11/10 03:58:40;;;;;;;15.17;11.23;;;5.70;99.90;;;;;;4932629;29;20177;-61
2021/11/10 04:01:06;;;;;;;18.00;12.23;;;5.70;99.90;;;;;;4931954;29;20794;-61
2021/11/10 04:03:33;;;;;;;13.90;9.45;;;5.70;99.90;;;;;;4950837;29;20286;-61
2021/11/10 04:05:59;;;;;;;13.82;10.18;;;5.70;99.90;;;;;;4951628;29;20185;-60
2021/11/10 04:08:25;;;;;;;16.07;11.10;;;5.70;99.90;;;;;;4951674;29;20185;-50
2021/11/10 04:10:51;;;;;;;14.47;10.17;;;5.60;99.90;;;;;;4951604;29;20448;-61
2021/11/10 04:13:17;;;;;;;15.60;10.87;;;5.60;99.90;;;;;;4951836;29;20412;-60
2021/11/10 04:15:43;;;;;;;14.60;11.07;;;5.60;99.90;;;;;;4951187;29;20221;-61
2021/11/10 04:18:08;;;;;;;13.27;9.70;;;5.50;99.90;;;;;;4951252;29;20189;-61
2021/11/10 04:20:34;;;;;;;13.80;10.70;;;5.50;99.90;;;;;;4951547;29;20426;-60
2021/11/10 04:23:00;;;;;;;16.90;11.10;;;5.40;99.90;;;;;;4951511;29;20225;-53
2021/11/10 04:25:25;;;;;;;15.77;11.27;;;5.40;99.90;;;;;;4945363;28;20198;-60
2021/11/10 04:27:51;;;;;;;16.17;10.83;;;5.40;99.90;;;;;;4949188;28;20174;-55
2021/11/10 04:30:17;;;;;;;13.00;10.27;;;5.30;99.90;;;;;;4950491;29;20197;-60
2021/11/10 04:32:44;;;;;;;16.63;11.50;;;5.30;99.90;;;;;;4950905;29;20568;-60
2021/11/10 04:35:11;;;;;;;17.73;11.45;;;5.30;99.90;;;;;;4948071;29;20241;-60
2021/11/10 04:37:37;;;;;;;16.05;11.35;;;5.30;99.90;;;;;;4951023;29;20185;-59
2021/11/10 04:40:05;;;;;;;16.73;10.95;;;5.20;99.90;;;;;;4950720;29;20194;-60
2021/11/10 04:42:30;;;;;;;14.65;10.57;;;5.20;99.90;;;;;;4941055;28;20190;-60
2021/11/10 04:45:02;;;;;;;19.57;11.60;;;5.30;99.90;;;;;;4950367;28;20625;-60
2021/11/10 04:47:28;;;;;;;16.17;11.80;;;5.30;99.90;;;;;;4949675;29;20193;-60
2021/11/10 04:49:53;;;;;;;17.20;10.17;;;5.20;99.90;;;;;;4941110;29;20213;-60
2021/11/10 04:52:19;;;;;;;17.50;11.90;;;5.20;99.90;;;;;;4954678;29;20185;-61
2021/11/10 04:54:45;;;;;;;17.27;11.40;;;5.10;99.90;;;;;;4952876;29;20655;-60
2021/11/10 04:57:10;;;;;;;15.00;11.10;;;5.10;99.90;;;;;;4948229;29;20544;-61
2021/11/10 04:59:36;;;;;;;15.80;10.60;;;5.20;99.90;;;;;;4948480;29;20200;-61
2021/11/10 05:04:35;;;;;;;17.33;11.48;;;5.10;99.90;;;;;;4951298;29;20212;-61
2021/11/10 05:07:01;;;;;;;18.98;11.95;;;5.20;99.90;;;;;;4954381;29;20185;-61
2021/11/10 05:09:27;;;;;;;16.23;12.18;;;5.20;99.90;;;;;;4953313;29;20236;-60
2021/11/10 05:11:53;;;;;;;17.80;11.15;;;5.20;99.90;;;;;;4947627;29;20189;-61
2021/11/10 05:14:19;;;;;;;17.17;11.53;;;5.20;99.90;;;;;;4953623;29;20699;-61
2021/11/10 05:16:45;;;;;;;15.20;11.53;;;5.20;99.90;;;;;;4950427;29;20178;-61
2021/11/10 05:19:10;;;;;;;20.87;11.90;;;5.20;99.90;;;;;;4945976;29;20257;-61
2021/11/10 05:21:36;;;;;;;14.93;11.47;;;5.30;99.90;;;;;;4945357;29;20451;-60
2021/11/10 05:24:02;;;;;;;16.93;12.40;;;5.30;99.90;;;;;;4927923;29;20726;-61
2021/11/10 05:26:28;;;;;;;17.35;11.30;;;5.20;99.90;;;;;;4944574;29;20476;-61
2021/11/10 05:28:54;;;;;;;16.00;12.10;;;5.30;99.90;;;;;;4944684;29;20233;-60
2021/11/10 05:31:21;;;;;;;16.70;12.60;;;5.30;99.90;;;;;;4942398;29;20693;-60
2021/11/10 05:33:46;;;;;;;19.13;13.27;;;5.20;99.90;;;;;;4942361;29;20229;-59
2021/11/10 05:36:12;;;;;;;18.00;12.53;;;5.30;99.90;;;;;;4942518;29;20284;-61
2021/11/10 05:38:37;;;;;;;17.73;12.97;;;5.20;99.90;;;;;;4944225;29;20576;-51
2021/11/10 05:41:03;;;;;;;16.20;11.90;;;5.30;99.90;;;;;;4930736;29;20225;-52
2021/11/10 05:43:29;;;;;;;18.63;12.33;;;5.30;99.90;;;;;;4952245;29;20185;-48
2021/11/10 05:45:54;;;;;;;17.60;12.67;;;5.30;99.90;;;;;;4952948;29;20270;-48
2021/11/10 05:48:20;;;;;;;20.50;13.63;;;5.30;99.90;;;;;;4953028;29;20193;-49
2021/11/10 05:50:45;;;;;;;15.83;12.37;;;5.30;99.90;;;;;;4952577;29;20244;-53
2021/11/10 05:53:11;;;;;;;20.40;12.87;;;5.30;99.90;;;;;;4951632;29;20795;-48
2021/11/10 05:55:38;;;;;;;18.73;12.63;;;5.30;99.90;;;;;;4951104;28;20205;-51
2021/11/10 05:58:04;;;;;;;20.95;12.65;;;5.30;99.90;;;;;;4951661;29;20208;-52
2021/11/10 06:00:30;;;;;;;19.33;13.03;;;5.30;99.90;;;;;;4947530;29;20569;-50
2021/11/10 06:02:56;;;;;;;17.63;13.05;;;5.20;99.90;;;;;;4933642;29;20185;-51
2021/11/10 06:05:22;;;;;;;18.20;13.63;;;5.30;99.90;;;;;;4924909;29;20200;-52
2021/11/10 06:07:49;;;;;;;22.23;14.27;;;5.20;99.90;;;;;;4953722;29;20186;-49
2021/11/10 06:10:16;;;;;;;18.40;14.02;;;5.20;99.90;;;;;;4953698;29;20167;-48
2021/11/10 06:12:42;;;;;;;20.15;13.70;;;5.30;99.90;;;;;;4953472;29;20198;-50
2021/11/10 06:15:08;;;;;;;21.37;15.07;;;5.20;99.90;;;;;;4953804;29;20296;-51
2021/11/10 06:17:34;;;;;;;21.15;15.50;;;5.30;99.90;;;;;;4953137;29;20417;-48
2021/11/10 06:20:02;;;;;;;21.53;15.10;;;5.30;99.90;;;;;;4953490;29;20595;-55
2021/11/10 06:22:27;;;;;;;18.20;13.45;;;5.30;99.90;;;;;;4953553;29;20178;-46
2021/11/10 06:24:53;;;;;;;17.53;13.30;;;5.30;99.90;;;;;;4949737;29;20571;-51
2021/11/10 06:27:18;;;;;;;18.93;14.30;;;5.30;99.90;;;;;;4933584;29;20240;-48
2021/11/10 06:29:44;;;;;;;21.50;14.13;;;5.30;99.90;;;;;;4951685;28;20193;-54
2021/11/10 06:32:10;;;;;;;22.27;15.20;;;5.40;99.90;;;;;;4952548;29;20236;-48
2021/11/10 06:34:36;;;;;;;20.20;14.48;;;5.30;99.90;;;;;;4949955;29;20464;-46
2021/11/10 06:37:02;;;;;;;31.10;25.53;;;5.40;99.90;;;;;;4952959;29;20185;-50
2021/11/10 06:39:27;;;;;;;20.70;14.33;;;5.40;99.90;;;;;;4952880;29;20253;-50
2021/11/10 06:41:53;;;;;;;19.30;14.63;;;5.40;99.90;;;;;;4952821;29;20427;-53
2021/11/10 06:44:19;;;;;;;19.50;14.30;;;5.50;99.90;;;;;;4952920;29;20174;-53
2021/11/10 06:46:44;;;;;;;18.47;13.40;;;5.50;99.90;;;;;;4952402;29;20209;-54
2021/11/10 06:49:10;;;;;;;21.70;13.70;;;5.50;99.90;;;;;;4952704;29;20214;-49
2021/11/10 06:51:36;;;;;;;17.80;13.10;;;5.50;99.90;;;;;;4952750;29;20184;-51
2021/11/10 06:54:02;;;;;;;16.77;12.87;;;5.60;99.90;;;;;;4952795;29;20205;-52
2021/11/10 06:56:27;;;;;;;19.67;13.93;;;5.70;99.90;;;;;;4952338;29;20719;-50
2021/11/10 06:58:53;;;;;;;22.90;16.67;;;5.70;99.90;;;;;;4952696;29;20231;-51
2021/11/10 07:01:19;;;;;;;20.50;13.33;;;5.80;99.90;;;;;;4951614;29;20189;-52
2021/11/10 07:03:45;;;;;;;17.83;13.70;;;5.90;99.90;;;;;;4943392;29;20186;-55
2021/11/10 07:06:10;;;;;;;19.27;13.75;;;5.90;99.90;;;;;;4945318;28;20193;-55
2021/11/10 07:08:36;;;;;;;17.67;13.20;;;5.90;99.90;;;;;;4945698;29;20189;-51
2021/11/10 07:11:02;;;;;;;20.73;15.20;;;6.00;99.90;;;;;;4951120;29;20657;-58
2021/11/10 07:13:27;;;;;;;18.67;13.67;;;6.00;99.90;;;;;;4952217;29;20930;-53
2021/11/10 07:15:53;;;;;;;17.80;13.93;;;6.00;99.90;;;;;;4950082;29;20256;-55
2021/11/10 07:18:18;;;;;;;18.43;14.47;;;6.10;99.90;;;;;;4952195;29;20182;-52
2021/11/10 07:20:44;;;;;;;18.53;13.30;;;6.10;99.90;;;;;;4951966;29;20563;-53
2021/11/10 07:23:09;;;;;;;21.17;15.10;;;6.20;99.90;;;;;;4952299;29;20170;-54
2021/11/10 07:25:35;;;;;;;21.10;14.97;;;6.20;99.90;;;;;;4951746;29;20186;-55
2021/11/10 07:28:01;;;;;;;20.93;14.87;;;6.30;99.90;;;;;;4952114;29;20606;-51
2021/11/10 07:30:27;;;;;;;20.57;14.70;;;6.40;99.90;;;;;;4952081;29;20421;-53
2021/11/10 07:32:52;;;;;;;20.43;14.93;;;6.50;99.90;;;;;;4951895;29;20226;-51
2021/11/10 07:35:18;;;;;;;19.97;15.90;;;6.60;99.90;;;;;;4945572;29;20205;-55
2021/11/10 07:37:46;;;;;;;20.73;15.10;;;6.70;99.90;;;;;;4941612;29;20182;-47
2021/11/10 07:40:13;;;;;;;19.23;14.43;;;6.80;99.90;;;;;;4947187;29;20228;-53
2021/11/10 07:42:39;;;;;;;21.20;15.47;;;7.00;99.90;;;;;;4936317;29;20158;-50
2021/11/10 07:45:30;;;;;;;19.13;14.90;;;7.30;99.90;;;;;;4947670;29;20452;-54
2021/11/10 07:47:56;;;;;;;20.10;15.37;;;7.60;99.90;;;;;;4951656;29;20244;-52
2021/11/10 07:50:23;;;;;;;16.80;13.90;;;8.10;99.90;;;;;;4951566;29;20504;-54
2021/11/10 07:52:49;;;;;;;16.70;14.37;;;8.40;99.90;;;;;;4951891;29;20921;-55
2021/11/10 07:55:15;;;;;;;17.90;15.07;;;8.70;99.90;;;;;;4951441;29;20870;-48
2021/11/10 07:57:41;;;;;;;16.97;14.03;;;9.00;99.90;;;;;;4947013;29;20701;-52
2021/11/10 08:00:11;;;;;;;17.13;14.80;;;9.10;99.90;;;;;;4945631;29;20253;-50
2021/11/10 08:02:36;;;;;;;20.20;14.43;;;9.00;99.90;;;;;;4936492;29;20418;-51
2021/11/10 08:05:03;;;;;;;15.70;14.00;;;9.00;99.90;;;;;;4930944;29;20837;-52
2021/11/10 08:07:28;;;;;;;19.87;16.13;;;8.90;99.90;;;;;;4931635;29;20214;-56
2021/11/10 08:09:54;;;;;;;18.60;16.13;;;8.80;99.90;;;;;;4943342;28;20433;-50
2021/11/10 08:12:20;;;;;;;19.97;17.10;;;8.70;99.90;;;;;;4949535;28;20200;-50
2021/11/10 08:14:45;;;;;;;20.83;16.07;;;8.60;99.90;;;;;;4950936;29;20930;-49
2021/11/10 08:17:11;;;;;;;20.53;16.90;;;8.60;99.90;;;;;;4950416;29;20807;-50
2021/11/10 08:19:36;;;;;;;23.17;17.00;;;8.60;99.90;;;;;;4950798;29;20177;-46
2021/11/10 08:22:02;;;;;;;20.23;16.60;;;8.50;99.90;;;;;;4950430;29;20216;-51
2021/11/10 08:24:29;;;;;;;20.77;16.67;;;8.60;99.90;;;;;;4950845;29;20214;-49
2021/11/10 08:26:55;;;;;;;19.03;16.13;;;8.90;99.90;;;;;;4950455;29;20200;-51
2021/11/10 08:29:22;;;;;;;17.37;15.53;;;9.30;99.90;;;;;;4948452;29;21295;-52
2021/11/10 08:31:48;;;;;;;18.33;16.33;;;9.90;99.90;;;;;;4950888;29;20456;-54
2021/11/10 08:34:14;;;;;;;18.90;16.90;;;10.30;99.90;;;;;;4949791;29;20469;-52
2021/11/10 08:36:39;;;;;;;19.43;16.80;;;10.40;99.90;;;;;;4950575;29;20464;-50
2021/11/10 08:39:05;;;;;;;19.37;16.77;;;10.60;99.90;;;;;;4950382;29;20222;-52
2021/11/10 08:41:31;;;;;;;20.47;17.77;;;10.90;99.90;;;;;;4950304;29;20181;-53
2021/11/10 08:43:58;;;;;;;20.07;17.40;;;10.90;99.90;;;;;;4949342;29;20480;-53
2021/11/10 08:46:25;;;;;;;19.10;16.43;;;10.80;99.90;;;;;;4933239;29;20188;-47
2021/11/10 08:48:53;;;;;;;19.80;17.50;;;10.60;99.90;;;;;;4949833;29;20452;-54
2021/11/10 08:51:19;;;;;;;17.90;15.90;;;10.70;99.90;;;;;;4950293;29;20491;-55
2021/11/10 08:53:46;;;;;;;19.10;16.97;;;10.70;99.90;;;;;;4949878;29;20421;-53
2021/11/10 08:56:12;;;;;;;19.33;17.23;;;10.70;99.90;;;;;;4949979;29;20536;-55
2021/11/10 08:58:38;;;;;;;18.87;16.37;;;10.80;99.90;;;;;;4950580;29;20448;-49
2021/11/10 09:01:03;;;;;;;18.03;16.17;;;11.00;99.90;;;;;;4950378;29;20463;-56
2021/11/10 09:03:29;;;;;;;18.77;16.77;;;11.20;99.90;;;;;;4950108;29;20963;-51
2021/11/10 09:05:55;;;;;;;18.53;16.47;;;11.60;99.50;;;;;;4949470;29;20276;-49
2021/11/10 09:08:23;;;;;;;19.50;17.47;;;12.00;97.80;;;;;;4948478;29;20196;-50
2021/11/10 09:10:49;;;;;;;18.00;16.17;;;11.70;97.90;;;;;;4950424;29;20747;-49
2021/11/10 09:13:15;;;;;;;20.57;18.33;;;11.60;97.80;;;;;;4950012;29;20484;-49
2021/11/10 09:15:40;;;;;;;19.17;17.37;;;11.30;98.30;;;;;;4949360;29;20554;-54
2021/11/10 09:18:07;;;;;;;19.73;17.63;;;11.20;99.20;;;;;;4950410;29;20185;-49
2021/11/10 09:20:34;;;;;;;18.63;16.20;;;11.40;99.30;;;;;;4949976;29;20960;-54
2021/11/10 09:23:04;;;;;;;18.20;16.30;;;12.10;98.20;;;;;;4948806;29;20445;-50
2021/11/10 09:25:31;;;;;;;19.20;17.20;;;12.50;96.20;;;;;;4950322;29;20507;-49
2021/11/10 09:27:59;;;;;;;18.90;16.90;;;12.50;96.00;;;;;;4950355;29;20777;-52
2021/11/10 09:30:27;;;;;;;21.60;17.87;;;12.40;95.70;;;;;;4951572;28;20436;-51
2021/11/10 09:32:53;;;;;;;18.40;16.60;;;12.10;95.80;;;;;;4932255;29;20489;-48
2021/11/10 09:35:20;;;;;;;20.70;16.90;;;11.60;96.30;;;;;;4953346;29;20689;-52
2021/11/10 09:37:49;;;;;;;18.90;16.37;;;11.30;97.50;;;;;;4953411;29;20473;-48
2021/11/10 09:40:17;;;;;;;20.10;16.40;;;11.20;97.50;;;;;;4947698;29;20442;-50
2021/11/10 09:42:43;;;;;;;19.80;17.40;;;11.00;97.80;;;;;;4939494;29;20525;-48
2021/11/10 09:45:13;;;;;;;18.53;16.60;;;11.00;98.00;;;;;;4944031;29;20806;-49
2021/11/10 09:47:39;;;;;;;22.10;17.07;;;10.90;97.80;;;;;;4953073;29;20430;-50
2021/11/10 09:50:07;;;;;;;18.70;16.57;;;10.80;98.60;;;;;;4952801;29;20441;-47
2021/11/10 09:52:34;;;;;;;18.13;16.33;;;10.90;98.70;;;;;;4953045;29;20425;-48
2021/11/10 09:55:00;;;;;;;18.07;16.17;;;11.00;98.60;;;;;;4953397;29;20473;-50
2021/11/10 09:57:26;;;;;;;19.50;16.43;;;11.30;98.70;;;;;;4953748;29;20738;-52
2021/11/10 09:59:53;;;;;;;18.13;16.23;;;11.80;97.30;;;;;;4952819;29;20276;-56
2021/11/10 10:02:19;;;;;;;19.43;17.50;;;12.10;96.60;;;;;;4952912;29;20457;-49
2021/11/10 10:04:45;;;;;;;18.17;16.17;;;12.00;95.90;;;;;;4953043;29;20437;-47
2021/11/10 10:07:11;;;;;;;19.90;17.47;;;12.10;95.80;;;;;;4952585;29;20932;-49
2021/11/10 10:09:37;;;;;;;19.70;17.57;;;12.60;95.40;;;;;;4946444;29;20512;-48
2021/11/10 10:12:04;;;;;;;17.87;15.97;;;12.80;94.60;;;;;;4952952;29;20618;-52
2021/11/10 10:14:32;;;;;;;19.77;17.67;;;12.60;94.50;;;;;;4952653;29;20492;-58
2021/11/10 10:16:58;;;;;;;18.87;17.07;;;12.30;94.60;;;;;;4952479;29;20423;-57
2021/11/10 10:19:40;;;;;;;18.90;16.93;;;12.30;94.90;;;;;;4953027;29;20421;-54
2021/11/10 10:22:06;;;;;;;19.87;17.23;;;12.30;95.00;;;;;;4949259;29;20424;-50
2021/11/10 10:24:49;;;;;;;19.20;17.30;;;12.00;95.00;;;;;;4952281;29;20423;-47
2021/11/10 10:27:31;;;;;;;19.00;17.10;;;12.10;95.10;;;;;;4949076;29;21136;-47
2021/11/10 10:30:21;;;;;;;19.37;17.37;;;12.70;94.80;;;;;;4951647;29;20512;-52
2021/11/10 10:32:58;;;;;;;18.70;16.77;;;13.10;93.50;;;;;;4952029;29;20556;-48
2021/11/10 10:35:31;;;;;;;18.87;17.10;;;13.40;92.80;;;;;;4952419;29;20483;-49
2021/11/10 10:37:58;;;;;;;19.87;17.97;;;14.00;92.10;;;;;;4951987;29;20420;-47
2021/11/10 10:40:25;;;;;;;19.37;17.50;;;13.80;90.20;;;;;;4952484;29;20421;-49
2021/11/10 10:42:51;;;;;;;18.77;17.07;;;13.90;90.70;;;;;;4951525;28;20417;-53
2021/11/10 10:45:44;;;;;;;18.03;16.33;;;14.00;89.50;;;;;;4952429;29;20482;-54
2021/11/10 10:48:13;;;;;;;19.60;17.70;;;14.10;90.40;;;;;;4950506;29;20841;-54
2021/11/10 10:51:07;;;;;;;17.03;15.43;;;14.20;88.10;;;;;;4952471;29;20544;-55
2021/11/10 10:53:39;;;;;;;19.07;17.30;;;13.90;89.10;;;;;;4951676;29;20516;-48
2021/11/10 10:56:30;;;;;;;17.63;15.93;;;13.80;88.50;;;;;;4947681;28;20469;-48
2021/11/10 10:59:05;;;;;;;19.00;17.10;;;13.90;88.40;;;;;;4945513;29;20417;-51
2021/11/10 11:01:34;;;;;;;18.53;16.73;;;13.60;87.70;;;;;;4953600;29;20420;-47
2021/11/10 11:04:16;;;;;;;18.30;16.47;;;13.80;90.00;;;;;;4953450;29;20425;-53
2021/11/10 11:06:43;;;;;;;18.20;16.40;;;13.90;88.50;;;;;;4949747;29;20902;-51
2021/11/10 11:09:13;;;;;;;17.40;15.80;;;13.80;87.20;;;;;;4951364;29;20449;-51
2021/11/10 11:11:45;;;;;;;17.30;15.50;;;14.10;88.60;;;;;;4953213;29;20421;-54
2021/11/10 11:17:17;;;;;;;18.40;16.67;;;14.20;85.60;;;;;;4893569;29;20543;-56
2021/11/10 11:19:52;;;;;;;18.53;16.73;;;14.30;85.60;;;;;;4942459;29;20444;-47
2021/11/10 11:22:17;;;;;;;18.70;16.63;;;14.30;85.30;;;;;;4952856;29;20425;-50
2021/11/10 11:24:44;;;;;;;18.67;16.80;;;13.60;85.60;;;;;;4953060;29;20749;-52
2021/11/10 11:27:11;;;;;;;19.07;17.17;;;13.60;87.00;;;;;;4953095;29;20269;-48
2021/11/10 11:29:37;;;;;;;18.60;16.90;;;13.40;87.80;;;;;;4952318;29;20908;-52
2021/11/10 11:32:17;;;;;;;18.27;16.47;;;13.80;89.00;;;;;;4951758;29;20461;-50
2021/11/10 11:35:01;;;;;;;17.67;15.87;;;14.10;87.20;;;;;;4951995;29;20445;-47
2021/11/10 11:37:28;;;;;;;17.63;15.93;;;14.30;86.70;;;;;;4951987;29;20788;-53
2021/11/10 11:39:55;;;;;;;18.07;16.33;;;14.20;85.70;;;;;;4950812;29;20437;-47
2021/11/10 11:42:22;;;;;;;18.67;16.70;;;14.30;84.50;;;;;;4952647;29;20431;-47
2021/11/10 11:44:49;;;;;;;17.50;15.80;;;14.20;84.20;;;;;;4951767;29;20446;-52
2021/11/10 11:47:18;;;;;;;17.80;16.10;;;14.00;86.20;;;;;;4952659;29;20433;-51
2021/11/10 11:49:46;;;;;;;16.60;15.13;;;14.00;86.20;;;;;;4952632;29;21000;-51
2021/11/10 11:52:13;;;;;;;16.33;14.80;;;13.80;85.10;;;;;;4950731;29;21010;-49
2021/11/10 11:54:45;;;;;;;17.53;15.90;;;13.80;86.00;;;;;;4950296;28;20418;-48
2021/11/10 11:57:22;;;;;;;19.77;16.90;;;13.60;87.00;;;;;;4950823;29;20459;-51
2021/11/10 11:59:50;;;;;;;16.60;15.00;;;13.30;86.30;;;;;;4948992;29;20432;-48
2021/11/10 12:02:38;;;;;;;19.00;17.30;;;13.50;87.70;;;;;;4950956;29;20420;-50
2021/11/10 12:05:15;;;;;;;18.60;16.70;;;13.40;86.90;;;;;;4950146;29;20822;-48
2021/11/10 12:07:51;;;;;;;18.73;16.83;;;13.20;88.40;;;;;;4950441;29;20441;-50
2021/11/10 12:10:23;;;;;;;19.77;17.77;;;13.10;88.70;;;;;;4943340;29;20802;-55
2021/11/10 12:13:14;;;;;;;18.53;16.80;;;13.00;89.30;;;;;;4945621;29;20417;-54
2021/11/10 12:16:05;;;;;;;18.43;16.67;;;12.90;89.10;;;;;;4934662;29;20457;-50
2021/11/10 12:18:42;;;;;;;18.80;16.90;;;13.00;89.80;;;;;;4950339;29;20437;-52
2021/11/10 12:21:07;;;;;;;17.90;16.20;;;12.90;90.20;;;;;;4950620;29;20465;-54
2021/11/10 12:23:53;;;;;;;19.00;17.20;;;13.10;89.70;;;;;;4950480;29;20437;-53
2021/11/10 12:26:20;;;;;;;18.23;16.53;;;13.20;90.00;;;;;;4950149;29;20550;-53
2021/11/10 12:28:51;;;;;;;19.97;17.90;;;13.30;89.50;;;;;;4943093;29;20442;-53
2021/11/10 12:31:32;;;;;;;18.87;17.00;;;13.20;89.40;;;;;;4943434;29;20761;-54
2021/11/10 12:34:00;;;;;;;18.90;16.93;;;13.20;89.00;;;;;;4942889;29;21038;-50
2021/11/10 12:36:55;;;;;;;19.20;17.17;;;13.20;88.90;;;;;;4933632;29;20470;-48
2021/11/10 12:39:39;;;;;;;18.63;16.77;;;12.90;89.50;;;;;;4933348;29;20450;-52
2021/11/10 12:42:16;;;;;;;21.10;18.90;;;12.80;90.20;;;;;;4931924;29;20461;-50
2021/11/10 12:44:49;;;;;;;19.73;17.70;;;12.60;90.60;;;;;;4933127;29;20430;-50